createdAt,value
2022-07-31T00:01:49.682Z,90.65
2022-07-31T00:04:20.548Z,90.33
2022-07-31T00:06:49.923Z,90.37
2022-07-31T00:09:52.261Z,90.10
2022-07-31T00:12:08.887Z,90.45
2022-07-31T00:14:39.280Z,90.48
2022-07-31T00:17:08.572Z,90.68
2022-07-31T00:19:39.536Z,90.76
2022-07-31T00:22:09.151Z,90.64
2022-07-31T00:24:38.760Z,90.60
2022-07-31T00:27:10.722Z,90.18
2022-07-31T00:29:40.235Z,89.64
2022-07-31T00:32:11.575Z,89.44
2022-07-31T00:34:42.574Z,88.84
2022-07-31T00:37:13.061Z,88.52
2022-07-31T00:39:42.523Z,88.71
2022-07-31T00:42:19.277Z,87.87
2022-07-31T00:44:49.308Z,88.04
2022-07-31T00:47:23.931Z,88.10
2022-07-31T00:49:56.872Z,87.75
2022-07-31T00:52:26.529Z,87.59
2022-07-31T00:54:55.916Z,87.42
2022-07-31T00:57:25.136Z,87.80
2022-07-31T00:59:54.469Z,87.48
2022-07-31T01:02:24.072Z,87.62
2022-07-31T01:04:53.683Z,87.66
2022-07-31T01:07:24.620Z,87.10
2022-07-31T01:09:57.321Z,88.00
2022-07-31T01:12:38.842Z,87.69
2022-07-31T01:15:13.156Z,87.70
2022-07-31T01:17:45.528Z,87.62
2022-07-31T01:20:17.370Z,88.01
2022-07-31T01:23:19.929Z,88.13
2022-07-31T01:26:26.503Z,87.63
2022-07-31T01:29:17.239Z,87.29
2022-07-31T01:31:53.871Z,87.59
2022-07-31T01:34:34.899Z,87.80
2022-07-31T01:37:18.987Z,88.27
2022-07-31T01:39:55.904Z,87.97
2022-07-31T01:42:27.255Z,88.03
2022-07-31T01:45:02.389Z,88.22
2022-07-31T01:47:34.443Z,87.55
2022-07-31T01:50:07.571Z,87.38
2022-07-31T01:52:37.947Z,87.29
2022-07-31T01:55:09.311Z,87.36
2022-07-31T01:57:43.087Z,87.19
2022-07-31T02:00:33.431Z,86.42
2022-07-31T02:03:09.858Z,87.17
2022-07-31T02:05:43.852Z,86.69
2022-07-31T02:08:16.523Z,87.40
2022-07-31T02:10:49.519Z,87.45
2022-07-31T02:13:19.680Z,87.42
2022-07-31T02:15:51.640Z,87.80
2022-07-31T02:18:25.042Z,87.50
2022-07-31T02:21:11.090Z,87.86
2022-07-31T02:23:40.694Z,87.65
2022-07-31T02:26:11.168Z,87.62
2022-07-31T02:28:45.067Z,87.43
2022-07-31T02:31:18.569Z,87.56
2022-07-31T02:33:50.728Z,87.40
2022-07-31T02:36:22.677Z,87.54
2022-07-31T02:38:55.169Z,87.89
2022-07-31T02:41:26.537Z,87.37
2022-07-31T02:43:56.443Z,87.73
2022-07-31T02:46:29.016Z,87.74
2022-07-31T02:49:00.298Z,87.47
2022-07-31T02:51:42.534Z,87.60
2022-07-31T02:54:12.768Z,87.47
2022-07-31T02:56:43.251Z,87.23
2022-07-31T02:59:12.783Z,87.44
2022-07-31T03:02:01.220Z,87.27
2022-07-31T03:04:33.299Z,87.67
2022-07-31T03:07:03.001Z,87.70
2022-07-31T03:09:33.175Z,87.63
2022-07-31T03:12:21.579Z,87.44
2022-07-31T03:14:51.699Z,87.19
2022-07-31T03:17:23.618Z,87.14
2022-07-31T03:20:10.729Z,87.54
2022-07-31T03:22:41.042Z,87.32
2022-07-31T03:25:11.929Z,87.36
2022-07-31T03:27:55.806Z,87.42
2022-07-31T03:30:27.396Z,87.59
2022-07-31T03:33:02.989Z,87.10
2022-07-31T03:35:39.874Z,87.33
2022-07-31T03:38:39.165Z,87.02
2022-07-31T03:41:06.818Z,87.44
2022-07-31T03:43:44.375Z,87.21
2022-07-31T03:46:22.552Z,87.16
2022-07-31T03:48:54.341Z,87.62
2022-07-31T03:51:27.678Z,87.74
2022-07-31T03:53:57.864Z,87.82
2022-07-31T03:56:57.106Z,87.74
2022-07-31T03:59:29.830Z,87.74
2022-07-31T04:02:10.373Z,87.70
2022-07-31T04:04:49.209Z,87.58
2022-07-31T04:07:19.631Z,87.51
2022-07-31T04:09:49.437Z,87.28
2022-07-31T04:12:19.122Z,87.58
2022-07-31T04:14:49.244Z,87.35
2022-07-31T04:17:19.873Z,87.36
2022-07-31T04:19:50.821Z,86.91
2022-07-31T04:22:20.432Z,86.67
2022-07-31T04:24:51.266Z,86.60
2022-07-31T04:27:48.084Z,87.09
2022-07-31T04:30:19.801Z,86.67
2022-07-31T04:32:50.273Z,86.62
2022-07-31T04:35:25.618Z,86.68
2022-07-31T04:37:55.157Z,86.59
2022-07-31T04:40:26.530Z,86.57
2022-07-31T04:42:56.435Z,86.86
2022-07-31T04:45:26.098Z,87.15
2022-07-31T04:47:56.011Z,87.42
2022-07-31T04:50:26.854Z,87.57
2022-07-31T04:53:00.854Z,87.46
2022-07-31T04:55:36.405Z,87.12
2022-07-31T04:58:06.116Z,87.00
2022-07-31T05:00:35.622Z,87.19
2022-07-31T05:03:06.328Z,87.10
2022-07-31T05:05:37.441Z,87.08
2022-07-31T05:08:08.091Z,86.59
2022-07-31T05:11:02.727Z,86.88
2022-07-31T05:13:33.663Z,86.70
2022-07-31T05:16:03.173Z,86.73
2022-07-31T05:18:33.384Z,86.58
2022-07-31T05:21:51.415Z,86.40
2022-07-31T05:25:06.227Z,86.55
2022-07-31T05:27:39.172Z,86.79
2022-07-31T05:30:13.941Z,86.99
2022-07-31T05:32:43.451Z,87.14
2022-07-31T05:35:12.781Z,87.22
2022-07-31T05:37:44.978Z,87.19
2022-07-31T05:40:15.431Z,86.56
2022-07-31T05:43:03.932Z,86.57
2022-07-31T05:45:54.846Z,86.24
2022-07-31T05:48:24.579Z,86.40
2022-07-31T05:50:54.191Z,86.13
2022-07-31T05:53:25.576Z,86.14
2022-07-31T05:56:21.556Z,86.45
2022-07-31T05:58:53.823Z,86.20
2022-07-31T06:01:23.341Z,86.43
2022-07-31T06:03:52.899Z,86.26
2022-07-31T06:06:25.205Z,86.59
2022-07-31T06:08:58.439Z,86.34
2022-07-31T06:11:31.624Z,85.80
2022-07-31T06:14:01.297Z,85.88
2022-07-31T06:16:38.279Z,86.42
2022-07-31T06:19:07.946Z,86.69
2022-07-31T06:21:38.172Z,86.60
2022-07-31T06:24:09.829Z,86.55
2022-07-31T06:26:46.016Z,86.76
2022-07-31T06:29:15.993Z,86.75
2022-07-31T06:31:45.592Z,86.16
2022-07-31T06:34:19.804Z,86.72
2022-07-31T06:36:51.261Z,86.33
2022-07-31T06:39:25.282Z,86.56
2022-07-31T06:42:44.487Z,86.27
2022-07-31T06:45:35.485Z,85.78
2022-07-31T06:48:24.358Z,86.38
2022-07-31T06:51:29.204Z,86.40
2022-07-31T06:53:54.193Z,86.64
2022-07-31T06:56:25.273Z,86.21
2022-07-31T06:58:55.352Z,86.24
2022-07-31T07:01:24.853Z,86.56
2022-07-31T07:03:55.105Z,86.72
2022-07-31T07:06:25.014Z,86.10
2022-07-31T07:08:54.917Z,86.18
2022-07-31T07:11:26.508Z,86.46
2022-07-31T07:13:55.799Z,86.25
2022-07-31T07:16:25.412Z,86.21
2022-07-31T07:18:56.108Z,86.10
2022-07-31T07:21:25.959Z,86.61
2022-07-31T07:23:55.369Z,86.38
2022-07-31T07:26:58.152Z,86.46
2022-07-31T07:29:27.497Z,86.51
2022-07-31T07:31:56.773Z,86.48
2022-07-31T07:34:26.127Z,85.79
2022-07-31T07:36:55.704Z,85.77
2022-07-31T07:39:29.686Z,85.99
2022-07-31T07:42:00.451Z,86.25
2022-07-31T07:44:29.866Z,86.34
2022-07-31T07:46:59.395Z,85.75
2022-07-31T07:49:30.533Z,85.97
2022-07-31T07:52:28.786Z,85.84
2022-07-31T07:55:21.413Z,85.22
2022-07-31T07:58:30.874Z,85.46
2022-07-31T08:01:23.239Z,86.12
2022-07-31T08:03:55.949Z,86.13
2022-07-31T08:06:25.243Z,86.06
2022-07-31T08:08:54.853Z,85.61
2022-07-31T08:11:42.702Z,85.76
2022-07-31T08:14:25.701Z,85.99
2022-07-31T08:17:27.404Z,85.10
2022-07-31T08:19:57.040Z,85.22
2022-07-31T08:22:26.311Z,84.79
2022-07-31T08:24:57.029Z,85.41
2022-07-31T08:27:39.781Z,85.84
2022-07-31T08:30:13.507Z,86.22
2022-07-31T08:32:42.899Z,84.99
2022-07-31T08:35:47.451Z,85.34
2022-07-31T08:38:20.608Z,85.65
2022-07-31T08:41:08.083Z,86.11
2022-07-31T08:44:01.370Z,85.68
2022-07-31T08:46:28.213Z,86.22
2022-07-31T08:48:59.366Z,86.35
2022-07-31T08:51:29.406Z,85.37
2022-07-31T08:54:37.729Z,85.47
2022-07-31T08:57:10.629Z,85.43
2022-07-31T08:59:44.223Z,84.60
2022-07-31T09:02:15.986Z,84.61
2022-07-31T09:05:05.248Z,85.04
2022-07-31T09:07:35.249Z,84.69
2022-07-31T09:10:08.400Z,84.14
2022-07-31T09:12:37.598Z,83.42
2022-07-31T09:15:25.539Z,83.43
2022-07-31T09:17:57.290Z,83.83
2022-07-31T09:20:29.538Z,82.74
2022-07-31T09:23:09.335Z,82.88
2022-07-31T09:25:54.241Z,81.68
2022-07-31T09:28:34.851Z,82.63
2022-07-31T09:31:07.260Z,81.18
2022-07-31T09:34:26.692Z,83.22
2022-07-31T09:37:19.894Z,80.30
2022-07-31T09:40:10.453Z,80.81
2022-07-31T09:43:00.028Z,82.08
2022-07-31T09:45:32.991Z,82.13
2022-07-31T09:48:13.767Z,80.10
2022-07-31T09:50:55.390Z,81.07
2022-07-31T09:53:25.945Z,81.16
2022-07-31T09:56:08.289Z,80.44
2022-07-31T09:58:37.578Z,80.92
2022-07-31T10:01:10.582Z,80.38
2022-07-31T10:03:42.819Z,81.40
2022-07-31T10:06:16.643Z,79.99
2022-07-31T10:08:49.375Z,80.74
2022-07-31T10:11:29.171Z,80.30
2022-07-31T10:14:20.077Z,81.03
2022-07-31T10:16:53.343Z,81.24
2022-07-31T10:19:49.903Z,80.49
2022-07-31T10:22:45.106Z,79.38
2022-07-31T10:25:22.390Z,80.09
2022-07-31T10:27:53.638Z,78.54
2022-07-31T10:30:27.791Z,79.56
2022-07-31T10:33:01.579Z,76.12
2022-07-31T10:35:31.387Z,75.96
2022-07-31T10:38:36.579Z,71.65
2022-07-31T10:41:35.561Z,71.06
2022-07-31T10:44:13.174Z,71.95
2022-07-31T10:47:01.178Z,72.73
2022-07-31T10:50:00.614Z,72.72
2022-07-31T10:52:50.350Z,70.89
2022-07-31T10:55:27.482Z,72.03
2022-07-31T10:58:20.944Z,71.31
2022-07-31T11:00:53.881Z,69.25
2022-07-31T11:03:46.722Z,71.25
2022-07-31T11:06:41.378Z,68.73
2022-07-31T11:09:30.564Z,70.32
2022-07-31T11:12:21.223Z,68.78
2022-07-31T11:15:22.127Z,69.28
2022-07-31T11:18:21.904Z,67.24
2022-07-31T11:21:36.045Z,67.97
2022-07-31T11:24:04.130Z,69.34
2022-07-31T11:26:41.575Z,69.11
2022-07-31T11:30:01.280Z,70.31
2022-07-31T11:32:14.394Z,69.51
2022-07-31T11:34:50.036Z,70.48
2022-07-31T11:37:21.760Z,65.41
2022-07-31T11:39:52.910Z,64.44
2022-07-31T11:42:26.494Z,65.73
2022-07-31T11:45:08.279Z,64.93
2022-07-31T11:48:11.385Z,64.56
2022-07-31T11:50:32.647Z,63.61
2022-07-31T11:53:07.332Z,59.67
2022-07-31T11:55:51.254Z,59.25
2022-07-31T11:58:23.981Z,62.94
2022-07-31T12:00:57.483Z,60.13
2022-07-31T12:03:31.841Z,58.06
2022-07-31T12:06:02.205Z,61.95
2022-07-31T12:08:32.005Z,58.46
2022-07-31T12:11:02.683Z,53.83
2022-07-31T12:13:32.461Z,54.86
2022-07-31T12:16:05.401Z,54.26
2022-07-31T12:18:48.319Z,49.67
2022-07-31T12:21:20.029Z,48.20
2022-07-31T12:23:52.387Z,49.27
2022-07-31T12:26:27.842Z,46.39
2022-07-31T12:29:02.581Z,45.00
2022-07-31T12:31:47.397Z,46.59
2022-07-31T12:34:31.092Z,46.72
2022-07-31T12:37:04.874Z,46.42
2022-07-31T12:39:53.961Z,43.97
2022-07-31T12:42:30.727Z,46.45
2022-07-31T12:45:18.422Z,44.42
2022-07-31T12:47:55.788Z,45.10
2022-07-31T12:50:27.051Z,47.05
2022-07-31T12:53:00.761Z,45.98
2022-07-31T12:55:33.072Z,43.11
2022-07-31T12:58:02.577Z,44.43
2022-07-31T13:00:31.850Z,45.16
2022-07-31T13:03:03.590Z,45.57
2022-07-31T13:05:32.857Z,45.13
2022-07-31T13:08:02.402Z,46.22
2022-07-31T13:10:32.476Z,47.44
2022-07-31T13:13:02.007Z,48.50
2022-07-31T13:15:31.926Z,49.09
2022-07-31T13:18:04.141Z,49.72
2022-07-31T13:20:33.954Z,50.41
2022-07-31T13:23:05.568Z,51.36
2022-07-31T13:25:34.992Z,51.63
2022-07-31T13:28:04.370Z,52.06
2022-07-31T13:30:33.612Z,52.76
2022-07-31T13:33:04.286Z,53.21
2022-07-31T13:35:34.474Z,53.52
2022-07-31T13:38:03.981Z,53.72
2022-07-31T13:40:51.105Z,53.94
2022-07-31T13:43:20.755Z,51.46
2022-07-31T13:45:51.605Z,50.62
2022-07-31T13:48:22.706Z,47.08
2022-07-31T13:50:51.995Z,46.29
2022-07-31T13:53:21.383Z,45.10
2022-07-31T13:55:50.770Z,45.95
2022-07-31T13:58:20.132Z,46.89
2022-07-31T14:00:50.122Z,48.29
2022-07-31T14:03:21.305Z,49.22
2022-07-31T14:05:53.040Z,49.57
2022-07-31T14:08:32.998Z,50.96
2022-07-31T14:11:15.065Z,51.37
2022-07-31T14:13:44.877Z,52.24
2022-07-31T14:16:14.066Z,52.65
2022-07-31T14:18:43.614Z,53.24
2022-07-31T14:21:16.489Z,53.60
2022-07-31T14:23:46.402Z,54.01
2022-07-31T14:26:15.789Z,54.63
2022-07-31T14:28:45.324Z,55.01
2022-07-31T14:31:17.153Z,55.75
2022-07-31T14:33:46.894Z,56.39
2022-07-31T14:36:17.604Z,56.69
2022-07-31T14:38:46.962Z,56.90
2022-07-31T14:41:16.115Z,57.12
2022-07-31T14:43:45.327Z,57.20
2022-07-31T14:46:14.816Z,57.30
2022-07-31T14:48:44.062Z,56.97
2022-07-31T14:51:20.564Z,56.29
2022-07-31T14:53:49.879Z,55.51
2022-07-31T14:56:34.704Z,56.01
2022-07-31T14:59:08.656Z,55.89
2022-07-31T15:01:38.072Z,54.98
2022-07-31T15:04:07.570Z,54.07
2022-07-31T15:06:53.405Z,52.36
2022-07-31T15:09:30.727Z,50.51
2022-07-31T15:12:01.807Z,50.31
2022-07-31T15:14:33.736Z,48.08
2022-07-31T15:17:03.542Z,47.93
2022-07-31T15:19:33.141Z,46.99
2022-07-31T15:22:15.925Z,45.89
2022-07-31T15:24:49.265Z,45.31
2022-07-31T15:27:21.865Z,45.82
2022-07-31T15:30:03.517Z,45.71
2022-07-31T15:32:36.940Z,46.64
2022-07-31T15:35:10.541Z,47.07
2022-07-31T15:37:44.249Z,47.83
2022-07-31T15:40:17.151Z,48.11
2022-07-31T15:42:49.235Z,48.62
2022-07-31T15:45:24.366Z,48.92
2022-07-31T15:47:55.712Z,49.51
2022-07-31T15:50:25.146Z,49.26
2022-07-31T15:52:55.835Z,49.83
2022-07-31T15:55:25.422Z,50.07
2022-07-31T15:57:54.719Z,49.90
2022-07-31T16:00:26.980Z,50.39
2022-07-31T16:02:56.613Z,49.72
2022-07-31T16:05:36.556Z,48.94
2022-07-31T16:08:29.715Z,49.21
2022-07-31T16:10:59.186Z,48.74
2022-07-31T16:13:28.792Z,49.30
2022-07-31T16:15:58.144Z,49.35
2022-07-31T16:18:28.026Z,49.39
2022-07-31T16:20:57.908Z,49.63
2022-07-31T16:23:28.948Z,49.51
2022-07-31T16:25:58.290Z,49.64
2022-07-31T16:28:30.854Z,49.43
2022-07-31T16:31:00.703Z,49.37
2022-07-31T16:33:30.131Z,49.20
2022-07-31T16:36:00.508Z,49.11
2022-07-31T16:38:32.008Z,47.98
2022-07-31T16:41:01.799Z,48.84
2022-07-31T16:43:47.533Z,49.57
2022-07-31T16:46:18.612Z,49.71
2022-07-31T16:48:48.296Z,50.22
2022-07-31T16:51:17.800Z,50.41
2022-07-31T16:54:10.656Z,50.58
2022-07-31T16:56:39.086Z,50.33
2022-07-31T16:59:11.354Z,50.36
2022-07-31T17:01:57.776Z,51.01
2022-07-31T17:04:30.607Z,51.49
2022-07-31T17:07:00.161Z,51.30
2022-07-31T17:09:31.590Z,51.13
2022-07-31T17:12:01.161Z,52.05
2022-07-31T17:14:30.470Z,52.38
2022-07-31T17:17:00.370Z,52.43
2022-07-31T17:19:42.792Z,52.21
2022-07-31T17:22:18.678Z,52.27
2022-07-31T17:24:51.722Z,52.60
2022-07-31T17:27:22.721Z,52.49
2022-07-31T17:29:52.095Z,52.98
2022-07-31T17:32:21.404Z,53.35
2022-07-31T17:34:50.658Z,53.54
2022-07-31T17:37:20.648Z,53.42
2022-07-31T17:39:56.325Z,52.87
2022-07-31T17:42:28.613Z,53.03
2022-07-31T17:44:58.990Z,52.65
2022-07-31T17:47:28.365Z,53.35
2022-07-31T17:50:00.220Z,53.45
2022-07-31T17:52:29.562Z,52.90
2022-07-31T17:55:01.523Z,52.88
2022-07-31T17:57:32.763Z,52.85
2022-07-31T18:00:02.487Z,52.40
2022-07-31T18:02:34.049Z,52.33
2022-07-31T18:05:03.563Z,51.75
2022-07-31T18:07:32.863Z,51.67
2022-07-31T18:10:03.594Z,51.94
2022-07-31T18:12:56.736Z,52.04
2022-07-31T18:15:22.343Z,52.30
2022-07-31T18:20:33.142Z,52.75
2022-07-31T18:23:02.470Z,52.98
2022-07-31T18:25:33.174Z,53.40
2022-07-31T18:28:02.473Z,53.71
2022-07-31T18:30:35.906Z,53.37
2022-07-31T18:33:10.111Z,53.65
2022-07-31T18:35:39.466Z,53.32
2022-07-31T18:38:08.717Z,52.89
2022-07-31T18:40:39.837Z,53.47
2022-07-31T18:43:09.201Z,53.43
2022-07-31T18:45:41.755Z,54.00
2022-07-31T18:48:11.382Z,54.33
2022-07-31T18:50:59.788Z,54.93
2022-07-31T18:53:30.409Z,55.49
2022-07-31T18:56:01.273Z,55.89
2022-07-31T18:58:32.090Z,56.06
2022-07-31T19:01:01.510Z,56.55
2022-07-31T19:03:31.461Z,57.07
2022-07-31T19:06:00.904Z,57.20
2022-07-31T19:08:30.226Z,57.57
2022-07-31T19:11:01.176Z,57.59
2022-07-31T19:13:30.961Z,57.68
2022-07-31T19:16:00.639Z,58.11
2022-07-31T19:18:29.877Z,58.25
2022-07-31T19:21:22.728Z,58.72
2022-07-31T19:23:49.743Z,59.17
2022-07-31T19:26:20.752Z,59.59
2022-07-31T19:28:52.668Z,59.70
2022-07-31T19:31:22.790Z,60.13
2022-07-31T19:33:57.743Z,60.42
2022-07-31T19:36:27.310Z,60.60
2022-07-31T19:38:58.070Z,60.81
2022-07-31T19:41:28.849Z,61.04
2022-07-31T19:43:58.392Z,61.01
2022-07-31T19:46:27.758Z,61.10
2022-07-31T19:48:57.270Z,61.35
2022-07-31T19:51:26.668Z,61.32
2022-07-31T19:53:55.868Z,61.56
2022-07-31T19:56:25.323Z,61.70
2022-07-31T19:58:56.333Z,61.84
2022-07-31T20:01:25.758Z,61.93
2022-07-31T20:03:57.513Z,62.08
2022-07-31T20:06:28.078Z,62.08
2022-07-31T20:08:59.024Z,62.09
2022-07-31T20:11:28.234Z,62.24
2022-07-31T20:13:59.267Z,62.52
2022-07-31T20:16:28.685Z,62.37
2022-07-31T20:18:58.180Z,62.65
2022-07-31T20:21:34.854Z,62.71
2022-07-31T20:24:05.312Z,62.47
2022-07-31T20:26:36.818Z,62.79
2022-07-31T20:29:07.907Z,62.63
2022-07-31T20:31:37.459Z,62.66
2022-07-31T20:34:09.647Z,62.61
2022-07-31T20:36:39.665Z,62.97
2022-07-31T20:39:10.897Z,63.10
2022-07-31T20:41:40.212Z,62.98
2022-07-31T20:44:11.189Z,62.95
2022-07-31T20:46:41.022Z,63.11
2022-07-31T20:49:19.628Z,63.21
2022-07-31T20:52:02.894Z,63.25
2022-07-31T20:54:34.704Z,63.75
2022-07-31T20:57:04.751Z,63.50
2022-07-31T20:59:35.868Z,63.85
2022-07-31T21:02:05.430Z,63.84
2022-07-31T21:04:38.269Z,64.05
2022-07-31T21:07:07.646Z,64.14
2022-07-31T21:09:39.634Z,64.31
2022-07-31T21:12:10.354Z,64.21
2022-07-31T21:14:41.606Z,64.29
2022-07-31T21:17:11.098Z,64.35
2022-07-31T21:19:40.468Z,64.58
2022-07-31T21:22:09.984Z,64.68
2022-07-31T21:24:40.112Z,64.86
2022-07-31T21:27:17.419Z,64.86
2022-07-31T21:29:50.419Z,65.06
2022-07-31T21:32:22.037Z,64.99
2022-07-31T21:34:52.406Z,64.99
2022-07-31T21:37:22.743Z,65.12
2022-07-31T21:39:54.102Z,65.17
2022-07-31T21:42:24.396Z,65.56
2022-07-31T21:44:57.886Z,66.20
2022-07-31T21:47:29.288Z,65.69
2022-07-31T21:50:29.363Z,65.89
2022-07-31T21:52:59.042Z,66.06
2022-07-31T21:55:28.463Z,66.44
2022-07-31T21:57:59.898Z,66.81
2022-07-31T22:00:31.756Z,66.94
2022-07-31T22:03:06.844Z,66.82
2022-07-31T22:05:54.124Z,67.08
2022-07-31T22:08:23.595Z,66.71
2022-07-31T22:10:53.801Z,66.61
2022-07-31T22:13:23.317Z,66.42
2022-07-31T22:16:00.159Z,65.71
2022-07-31T22:18:35.404Z,65.78
2022-07-31T22:21:09.614Z,63.85
2022-07-31T22:23:41.996Z,63.52
2022-07-31T22:26:12.822Z,63.95
2022-07-31T22:28:44.386Z,64.00
2022-07-31T22:31:18.381Z,62.79
2022-07-31T22:33:51.310Z,63.03
2022-07-31T22:36:21.342Z,62.89
2022-07-31T22:38:51.695Z,62.84
2022-07-31T22:41:21.025Z,62.60
2022-07-31T22:44:11.287Z,62.76
2022-07-31T22:46:42.832Z,62.84
2022-07-31T22:49:13.024Z,62.47
2022-07-31T22:51:46.376Z,62.21
2022-07-31T22:54:16.433Z,62.26
2022-07-31T22:56:45.748Z,62.60
2022-07-31T22:59:14.913Z,62.65
2022-07-31T23:01:45.599Z,62.26
2022-07-31T23:04:14.813Z,62.25
2022-07-31T23:06:43.974Z,62.66
2022-07-31T23:09:13.226Z,62.49
2022-07-31T23:11:44.773Z,62.48
2022-07-31T23:14:14.058Z,62.68
2022-07-31T23:16:45.007Z,62.36
2022-07-31T23:19:14.368Z,61.97
2022-07-31T23:21:43.737Z,62.14
2022-07-31T23:24:13.286Z,62.11
2022-07-31T23:26:42.588Z,62.27
2022-07-31T23:29:12.170Z,62.61
2022-07-31T23:31:41.345Z,62.51
2022-07-31T23:34:11.961Z,62.42
2022-07-31T23:36:41.264Z,62.38
2022-07-31T23:39:11.862Z,62.40
2022-07-31T23:41:58.959Z,62.73
2022-07-31T23:44:28.266Z,62.66
2022-07-31T23:46:57.567Z,62.97
2022-07-31T23:49:28.230Z,62.96
2022-07-31T23:51:57.932Z,63.02
2022-07-31T23:54:27.142Z,62.90
2022-07-31T23:56:56.380Z,62.98
2022-07-31T23:59:25.591Z,63.06
